sensor_id;sensor_type;location;lat;lon;timestamp;P1;durP1;ratioP1;P2;durP2;ratioP2
21743;SDS011;11034;48.556;9.342;2023-06-14T00:00:03;4.03;;;3.20;;
21743;SDS011;11034;48.556;9.342;2023-06-14T00:02:34;6.90;;;4.18;;
21743;SDS011;11034;48.556;9.342;2023-06-14T00:05:02;3.90;;;3.00;;
21743;SDS011;11034;48.556;9.342;2023-06-14T00:07:33;4.60;;;3.50;;
21743;SDS011;11034;48.556;9.342;2023-06-14T00:10:04;4.82;;;3.15;;
21743;SDS011;11034;48.556;9.342;2023-06-14T00:12:33;6.25;;;3.08;;
21743;SDS011;11034;48.556;9.342;2023-06-14T00:15:01;6.53;;;3.42;;
21743;SDS011;11034;48.556;9.342;2023-06-14T00:17:30;8.23;;;3.53;;
21743;SDS011;11034;48.556;9.342;2023-06-14T00:19:58;6.13;;;3.30;;
21743;SDS011;11034;48.556;9.342;2023-06-14T00:22:26;6.82;;;3.47;;
21743;SDS011;11034;48.556;9.342;2023-06-14T00:24:57;6.50;;;3.88;;
21743;SDS011;11034;48.556;9.342;2023-06-14T00:27:35;6.28;;;3.53;;
21743;SDS011;11034;48.556;9.342;2023-06-14T00:30:03;10.68;;;3.63;;
21743;SDS011;11034;48.556;9.342;2023-06-14T00:32:31;9.32;;;3.55;;
21743;SDS011;11034;48.556;9.342;2023-06-14T00:35:00;6.25;;;3.47;;
21743;SDS011;11034;48.556;9.342;2023-06-14T00:37:27;6.70;;;3.25;;
21743;SDS011;11034;48.556;9.342;2023-06-14T00:39:55;5.45;;;3.08;;
21743;SDS011;11034;48.556;9.342;2023-06-14T00:42:24;5.35;;;3.33;;
21743;SDS011;11034;48.556;9.342;2023-06-14T00:44:54;5.45;;;3.50;;
21743;SDS011;11034;48.556;9.342;2023-06-14T00:47:24;11.57;;;3.38;;
21743;SDS011;11034;48.556;9.342;2023-06-14T00:49:53;5.65;;;3.40;;
21743;SDS011;11034;48.556;9.342;2023-06-14T00:52:21;4.05;;;3.20;;
21743;SDS011;11034;48.556;9.342;2023-06-14T00:54:51;5.57;;;3.33;;
21743;SDS011;11034;48.556;9.342;2023-06-14T00:57:19;4.28;;;3.03;;
21743;SDS011;11034;48.556;9.342;2023-06-14T00:59:48;8.10;;;3.45;;
21743;SDS011;11034;48.556;9.342;2023-06-14T01:02:18;4.40;;;3.30;;
21743;SDS011;11034;48.556;9.342;2023-06-14T01:04:47;5.72;;;3.20;;
21743;SDS011;11034;48.556;9.342;2023-06-14T01:07:18;4.32;;;3.40;;
21743;SDS011;11034;48.556;9.342;2023-06-14T01:09:58;4.50;;;3.15;;
21743;SDS011;11034;48.556;9.342;2023-06-14T01:12:35;4.13;;;3.10;;
21743;SDS011;11034;48.556;9.342;2023-06-14T01:15:12;5.60;;;3.22;;
21743;SDS011;11034;48.556;9.342;2023-06-14T01:17:42;4.75;;;3.28;;
21743;SDS011;11034;48.556;9.342;2023-06-14T01:20:13;5.80;;;3.33;;
21743;SDS011;11034;48.556;9.342;2023-06-14T01:22:50;4.25;;;3.10;;
21743;SDS011;11034;48.556;9.342;2023-06-14T01:25:19;4.60;;;3.17;;
21743;SDS011;11034;48.556;9.342;2023-06-14T01:27:49;5.40;;;3.60;;
21743;SDS011;11034;48.556;9.342;2023-06-14T01:30:20;4.78;;;3.50;;
21743;SDS011;11034;48.556;9.342;2023-06-14T01:32:51;7.72;;;3.40;;
21743;SDS011;11034;48.556;9.342;2023-06-14T01:35:21;4.88;;;3.53;;
21743;SDS011;11034;48.556;9.342;2023-06-14T01:37:51;4.28;;;3.15;;
21743;SDS011;11034;48.556;9.342;2023-06-14T01:40:20;5.70;;;3.45;;
21743;SDS011;11034;48.556;9.342;2023-06-14T01:42:50;6.28;;;3.40;;
21743;SDS011;11034;48.556;9.342;2023-06-14T01:45:19;5.40;;;3.50;;
21743;SDS011;11034;48.556;9.342;2023-06-14T01:47:49;5.90;;;3.17;;
21743;SDS011;11034;48.556;9.342;2023-06-14T01:50:18;4.53;;;3.35;;
21743;SDS011;11034;48.556;9.342;2023-06-14T01:52:46;7.10;;;3.33;;
21743;SDS011;11034;48.556;9.342;2023-06-14T01:55:16;4.90;;;3.30;;
21743;SDS011;11034;48.556;9.342;2023-06-14T01:57:44;4.70;;;3.20;;
21743;SDS011;11034;48.556;9.342;2023-06-14T02:00:12;6.78;;;3.20;;
21743;SDS011;11034;48.556;9.342;2023-06-14T02:02:42;5.53;;;3.20;;
21743;SDS011;11034;48.556;9.342;2023-06-14T02:05:11;4.35;;;3.08;;
21743;SDS011;11034;48.556;9.342;2023-06-14T02:07:39;5.07;;;3.40;;
21743;SDS011;11034;48.556;9.342;2023-06-14T02:10:07;4.25;;;3.13;;
21743;SDS011;11034;48.556;9.342;2023-06-14T02:12:36;4.45;;;3.30;;
21743;SDS011;11034;48.556;9.342;2023-06-14T02:15:04;4.40;;;3.28;;
21743;SDS011;11034;48.556;9.342;2023-06-14T02:17:33;4.43;;;3.25;;
21743;SDS011;11034;48.556;9.342;2023-06-14T02:20:01;4.93;;;3.03;;
21743;SDS011;11034;48.556;9.342;2023-06-14T02:22:31;4.38;;;3.25;;
21743;SDS011;11034;48.556;9.342;2023-06-14T02:24:59;7.32;;;3.30;;
21743;SDS011;11034;48.556;9.342;2023-06-14T02:27:28;5.18;;;3.25;;
21743;SDS011;11034;48.556;9.342;2023-06-14T02:29:57;5.03;;;3.33;;
21743;SDS011;11034;48.556;9.342;2023-06-14T02:32:25;6.20;;;3.60;;
21743;SDS011;11034;48.556;9.342;2023-06-14T02:34:54;6.45;;;3.58;;
21743;SDS011;11034;48.556;9.342;2023-06-14T02:37:22;5.22;;;3.22;;
21743;SDS011;11034;48.556;9.342;2023-06-14T02:39:49;6.97;;;3.53;;
21743;SDS011;11034;48.556;9.342;2023-06-14T02:42:17;7.82;;;3.53;;
21743;SDS011;11034;48.556;9.342;2023-06-14T02:44:46;3.65;;;3.00;;
21743;SDS011;11034;48.556;9.342;2023-06-14T02:47:19;4.65;;;3.55;;
21743;SDS011;11034;48.556;9.342;2023-06-14T02:49:47;6.80;;;3.25;;
21743;SDS011;11034;48.556;9.342;2023-06-14T02:52:15;6.05;;;3.38;;
21743;SDS011;11034;48.556;9.342;2023-06-14T02:54:43;5.28;;;3.53;;
21743;SDS011;11034;48.556;9.342;2023-06-14T02:57:13;6.07;;;3.40;;
21743;SDS011;11034;48.556;9.342;2023-06-14T02:59:41;4.28;;;3.40;;
21743;SDS011;11034;48.556;9.342;2023-06-14T03:02:09;6.45;;;3.65;;
21743;SDS011;11034;48.556;9.342;2023-06-14T03:04:39;4.32;;;3.33;;
21743;SDS011;11034;48.556;9.342;2023-06-14T03:07:09;4.40;;;3.42;;
21743;SDS011;11034;48.556;9.342;2023-06-14T03:09:39;5.88;;;3.30;;
21743;SDS011;11034;48.556;9.342;2023-06-14T03:12:07;6.57;;;3.50;;
21743;SDS011;11034;48.556;9.342;2023-06-14T03:14:36;6.03;;;3.85;;
21743;SDS011;11034;48.556;9.342;2023-06-14T03:17:04;4.25;;;3.50;;
21743;SDS011;11034;48.556;9.342;2023-06-14T03:19:34;5.30;;;3.65;;
21743;SDS011;11034;48.556;9.342;2023-06-14T03:22:04;5.13;;;3.75;;
21743;SDS011;11034;48.556;9.342;2023-06-14T03:24:33;4.93;;;3.20;;
21743;SDS011;11034;48.556;9.342;2023-06-14T03:27:03;5.07;;;3.33;;
21743;SDS011;11034;48.556;9.342;2023-06-14T03:29:31;5.80;;;3.20;;
21743;SDS011;11034;48.556;9.342;2023-06-14T03:32:00;4.85;;;3.17;;
21743;SDS011;11034;48.556;9.342;2023-06-14T03:34:29;3.67;;;3.00;;
21743;SDS011;11034;48.556;9.342;2023-06-14T03:36:57;8.57;;;3.67;;
21743;SDS011;11034;48.556;9.342;2023-06-14T03:39:27;7.53;;;3.88;;
21743;SDS011;11034;48.556;9.342;2023-06-14T03:41:55;7.35;;;3.92;;
21743;SDS011;11034;48.556;9.342;2023-06-14T03:44:23;4.57;;;3.42;;
21743;SDS011;11034;48.556;9.342;2023-06-14T03:46:51;6.03;;;3.90;;
21743;SDS011;11034;48.556;9.342;2023-06-14T03:49:19;4.82;;;3.40;;
21743;SDS011;11034;48.556;9.342;2023-06-14T03:51:47;7.15;;;3.45;;
21743;SDS011;11034;48.556;9.342;2023-06-14T03:54:17;5.32;;;3.58;;
21743;SDS011;11034;48.556;9.342;2023-06-14T03:57:07;6.80;;;3.50;;
21743;SDS011;11034;48.556;9.342;2023-06-14T03:59:35;7.10;;;3.83;;
21743;SDS011;11034;48.556;9.342;2023-06-14T04:02:04;9.38;;;3.80;;
21743;SDS011;11034;48.556;9.342;2023-06-14T04:04:33;6.30;;;3.90;;
21743;SDS011;11034;48.556;9.342;2023-06-14T04:07:01;7.63;;;3.67;;
21743;SDS011;11034;48.556;9.342;2023-06-14T04:09:29;7.15;;;4.65;;
21743;SDS011;11034;48.556;9.342;2023-06-14T04:11:58;7.03;;;4.40;;
21743;SDS011;11034;48.556;9.342;2023-06-14T04:14:27;8.70;;;4.90;;
21743;SDS011;11034;48.556;9.342;2023-06-14T04:16:56;6.68;;;4.97;;
21743;SDS011;11034;48.556;9.342;2023-06-14T04:19:25;6.63;;;5.13;;
21743;SDS011;11034;48.556;9.342;2023-06-14T04:21:53;6.93;;;5.10;;
21743;SDS011;11034;48.556;9.342;2023-06-14T04:24:21;6.50;;;4.63;;
21743;SDS011;11034;48.556;9.342;2023-06-14T04:26:49;5.65;;;4.70;;
21743;SDS011;11034;48.556;9.342;2023-06-14T04:29:18;7.25;;;4.80;;
21743;SDS011;11034;48.556;9.342;2023-06-14T04:31:47;8.85;;;5.13;;
21743;SDS011;11034;48.556;9.342;2023-06-14T04:34:15;7.03;;;4.50;;
21743;SDS011;11034;48.556;9.342;2023-06-14T04:36:44;6.25;;;4.20;;
21743;SDS011;11034;48.556;9.342;2023-06-14T04:39:15;7.63;;;4.60;;
21743;SDS011;11034;48.556;9.342;2023-06-14T04:41:44;5.80;;;4.60;;
21743;SDS011;11034;48.556;9.342;2023-06-14T04:44:13;7.03;;;4.55;;
21743;SDS011;11034;48.556;9.342;2023-06-14T04:46:43;8.45;;;4.22;;
21743;SDS011;11034;48.556;9.342;2023-06-14T04:49:13;8.40;;;4.10;;
21743;SDS011;11034;48.556;9.342;2023-06-14T04:51:42;6.90;;;4.30;;
21743;SDS011;11034;48.556;9.342;2023-06-14T04:54:10;6.68;;;4.50;;
21743;SDS011;11034;48.556;9.342;2023-06-14T04:56:40;6.28;;;3.95;;
21743;SDS011;11034;48.556;9.342;2023-06-14T04:59:08;5.13;;;4.30;;
21743;SDS011;11034;48.556;9.342;2023-06-14T05:01:38;8.32;;;4.35;;
21743;SDS011;11034;48.556;9.342;2023-06-14T05:04:06;9.48;;;3.92;;
21743;SDS011;11034;48.556;9.342;2023-06-14T05:06:36;6.55;;;4.10;;
21743;SDS011;11034;48.556;9.342;2023-06-14T05:09:04;5.40;;;4.20;;
21743;SDS011;11034;48.556;9.342;2023-06-14T05:11:32;8.75;;;4.10;;
21743;SDS011;11034;48.556;9.342;2023-06-14T05:14:00;5.97;;;4.05;;
21743;SDS011;11034;48.556;9.342;2023-06-14T05:16:28;5.25;;;3.67;;
21743;SDS011;11034;48.556;9.342;2023-06-14T05:18:57;5.05;;;3.95;;
21743;SDS011;11034;48.556;9.342;2023-06-14T05:21:25;6.53;;;3.83;;
21743;SDS011;11034;48.556;9.342;2023-06-14T05:23:54;6.32;;;3.70;;
21743;SDS011;11034;48.556;9.342;2023-06-14T05:26:23;6.22;;;4.05;;
21743;SDS011;11034;48.556;9.342;2023-06-14T05:28:54;7.60;;;3.67;;
21743;SDS011;11034;48.556;9.342;2023-06-14T05:31:23;4.20;;;3.80;;
21743;SDS011;11034;48.556;9.342;2023-06-14T05:33:52;4.82;;;3.80;;
21743;SDS011;11034;48.556;9.342;2023-06-14T05:36:20;6.00;;;4.13;;
21743;SDS011;11034;48.556;9.342;2023-06-14T05:38:49;5.80;;;4.07;;
21743;SDS011;11034;48.556;9.342;2023-06-14T05:41:25;5.53;;;4.30;;
21743;SDS011;11034;48.556;9.342;2023-06-14T05:43:54;7.00;;;4.10;;
21743;SDS011;11034;48.556;9.342;2023-06-14T05:46:22;5.65;;;4.10;;
21743;SDS011;11034;48.556;9.342;2023-06-14T05:48:52;6.20;;;4.30;;
21743;SDS011;11034;48.556;9.342;2023-06-14T05:51:20;8.38;;;4.68;;
21743;SDS011;11034;48.556;9.342;2023-06-14T05:53:51;6.75;;;4.05;;
21743;SDS011;11034;48.556;9.342;2023-06-14T05:56:19;4.60;;;4.10;;
21743;SDS011;11034;48.556;9.342;2023-06-14T05:58:49;9.55;;;4.45;;
21743;SDS011;11034;48.556;9.342;2023-06-14T06:01:18;4.70;;;4.10;;
21743;SDS011;11034;48.556;9.342;2023-06-14T06:03:46;7.60;;;4.28;;
21743;SDS011;11034;48.556;9.342;2023-06-14T06:06:14;6.07;;;4.15;;
21743;SDS011;11034;48.556;9.342;2023-06-14T06:08:43;5.53;;;4.55;;
21743;SDS011;11034;48.556;9.342;2023-06-14T06:11:11;7.05;;;4.18;;
21743;SDS011;11034;48.556;9.342;2023-06-14T06:13:39;9.07;;;4.25;;
21743;SDS011;11034;48.556;9.342;2023-06-14T06:16:09;5.20;;;4.03;;
21743;SDS011;11034;48.556;9.342;2023-06-14T06:18:37;9.98;;;4.25;;
21743;SDS011;11034;48.556;9.342;2023-06-14T06:21:05;7.57;;;4.10;;
21743;SDS011;11034;48.556;9.342;2023-06-14T06:23:33;5.78;;;4.20;;
21743;SDS011;11034;48.556;9.342;2023-06-14T06:26:02;5.55;;;4.20;;
21743;SDS011;11034;48.556;9.342;2023-06-14T06:28:30;7.53;;;4.30;;
21743;SDS011;11034;48.556;9.342;2023-06-14T06:30:59;5.70;;;4.15;;
21743;SDS011;11034;48.556;9.342;2023-06-14T06:33:31;5.57;;;4.30;;
21743;SDS011;11034;48.556;9.342;2023-06-14T06:36:00;8.27;;;4.50;;
21743;SDS011;11034;48.556;9.342;2023-06-14T06:38:28;7.63;;;4.55;;
21743;SDS011;11034;48.556;9.342;2023-06-14T06:40:56;9.00;;;4.57;;
21743;SDS011;11034;48.556;9.342;2023-06-14T06:43:24;5.78;;;3.95;;
21743;SDS011;11034;48.556;9.342;2023-06-14T06:45:52;5.97;;;4.45;;
21743;SDS011;11034;48.556;9.342;2023-06-14T06:48:20;7.30;;;4.47;;
21743;SDS011;11034;48.556;9.342;2023-06-14T06:50:50;4.70;;;4.20;;
21743;SDS011;11034;48.556;9.342;2023-06-14T06:53:18;6.05;;;4.50;;
21743;SDS011;11034;48.556;9.342;2023-06-14T06:56:04;7.35;;;4.72;;
21743;SDS011;11034;48.556;9.342;2023-06-14T06:58:32;6.10;;;4.22;;
21743;SDS011;11034;48.556;9.342;2023-06-14T07:01:01;5.20;;;4.20;;
21743;SDS011;11034;48.556;9.342;2023-06-14T07:03:29;8.55;;;4.40;;
21743;SDS011;11034;48.556;9.342;2023-06-14T07:05:58;5.22;;;4.53;;
21743;SDS011;11034;48.556;9.342;2023-06-14T07:08:27;6.40;;;4.68;;
21743;SDS011;11034;48.556;9.342;2023-06-14T07:10:55;6.95;;;4.78;;
21743;SDS011;11034;48.556;9.342;2023-06-14T07:13:23;7.07;;;4.97;;
21743;SDS011;11034;48.556;9.342;2023-06-14T07:15:53;5.63;;;4.53;;
21743;SDS011;11034;48.556;9.342;2023-06-14T07:18:22;6.00;;;4.30;;
21743;SDS011;11034;48.556;9.342;2023-06-14T07:20:50;7.82;;;4.68;;
21743;SDS011;11034;48.556;9.342;2023-06-14T07:23:21;4.80;;;4.25;;
21743;SDS011;11034;48.556;9.342;2023-06-14T07:25:49;10.77;;;4.40;;
21743;SDS011;11034;48.556;9.342;2023-06-14T07:28:17;8.15;;;4.45;;
21743;SDS011;11034;48.556;9.342;2023-06-14T07:30:46;5.93;;;4.47;;
21743;SDS011;11034;48.556;9.342;2023-06-14T07:33:14;6.50;;;4.47;;
21743;SDS011;11034;48.556;9.342;2023-06-14T07:35:42;5.30;;;4.28;;
21743;SDS011;11034;48.556;9.342;2023-06-14T07:38:10;5.10;;;4.38;;
21743;SDS011;11034;48.556;9.342;2023-06-14T07:40:40;7.30;;;4.53;;
21743;SDS011;11034;48.556;9.342;2023-06-14T07:43:08;6.07;;;4.40;;
21743;SDS011;11034;48.556;9.342;2023-06-14T07:45:36;5.25;;;4.63;;
21743;SDS011;11034;48.556;9.342;2023-06-14T07:48:10;7.10;;;4.70;;
21743;SDS011;11034;48.556;9.342;2023-06-14T07:50:39;6.03;;;4.30;;
21743;SDS011;11034;48.556;9.342;2023-06-14T07:53:07;7.55;;;4.20;;
21743;SDS011;11034;48.556;9.342;2023-06-14T07:55:35;6.93;;;4.50;;
21743;SDS011;11034;48.556;9.342;2023-06-14T07:58:19;8.90;;;4.50;;
21743;SDS011;11034;48.556;9.342;2023-06-14T08:00:48;5.45;;;4.45;;
21743;SDS011;11034;48.556;9.342;2023-06-14T08:03:16;5.65;;;4.35;;
21743;SDS011;11034;48.556;9.342;2023-06-14T08:05:44;6.80;;;4.80;;
21743;SDS011;11034;48.556;9.342;2023-06-14T08:08:13;7.72;;;4.13;;
21743;SDS011;11034;48.556;9.342;2023-06-14T08:10:41;8.10;;;4.22;;
21743;SDS011;11034;48.556;9.342;2023-06-14T08:13:09;10.32;;;5.18;;
21743;SDS011;11034;48.556;9.342;2023-06-14T08:15:38;7.88;;;5.22;;
21743;SDS011;11034;48.556;9.342;2023-06-14T08:18:06;7.78;;;5.18;;
21743;SDS011;11034;48.556;9.342;2023-06-14T08:20:34;9.13;;;4.70;;
21743;SDS011;11034;48.556;9.342;2023-06-14T08:23:03;9.38;;;4.88;;
21743;SDS011;11034;48.556;9.342;2023-06-14T08:25:31;11.55;;;5.20;;
21743;SDS011;11034;48.556;9.342;2023-06-14T08:27:59;7.50;;;4.70;;
21743;SDS011;11034;48.556;9.342;2023-06-14T08:30:27;9.32;;;4.63;;
21743;SDS011;11034;48.556;9.342;2023-06-14T08:32:56;9.07;;;4.75;;
21743;SDS011;11034;48.556;9.342;2023-06-14T08:35:42;9.13;;;4.65;;
21743;SDS011;11034;48.556;9.342;2023-06-14T08:38:10;9.07;;;4.97;;
21743;SDS011;11034;48.556;9.342;2023-06-14T08:40:38;7.72;;;4.68;;
21743;SDS011;11034;48.556;9.342;2023-06-14T08:43:08;5.45;;;4.28;;
21743;SDS011;11034;48.556;9.342;2023-06-14T08:45:37;6.03;;;4.28;;
21743;SDS011;11034;48.556;9.342;2023-06-14T08:48:07;10.23;;;4.60;;
21743;SDS011;11034;48.556;9.342;2023-06-14T08:50:36;8.10;;;4.60;;
21743;SDS011;11034;48.556;9.342;2023-06-14T08:53:08;6.82;;;4.47;;
21743;SDS011;11034;48.556;9.342;2023-06-14T08:55:39;7.43;;;4.25;;
21743;SDS011;11034;48.556;9.342;2023-06-14T08:58:09;8.80;;;4.22;;
21743;SDS011;11034;48.556;9.342;2023-06-14T09:00:41;6.68;;;4.10;;
21743;SDS011;11034;48.556;9.342;2023-06-14T09:03:12;5.47;;;3.95;;
21743;SDS011;11034;48.556;9.342;2023-06-14T09:05:41;5.68;;;4.18;;
21743;SDS011;11034;48.556;9.342;2023-06-14T09:08:10;7.05;;;4.10;;
21743;SDS011;11034;48.556;9.342;2023-06-14T09:10:38;7.25;;;4.10;;
21743;SDS011;11034;48.556;9.342;2023-06-14T09:13:07;5.82;;;3.55;;
21743;SDS011;11034;48.556;9.342;2023-06-14T09:15:35;11.52;;;4.22;;
21743;SDS011;11034;48.556;9.342;2023-06-14T09:18:03;6.88;;;4.30;;
21743;SDS011;11034;48.556;9.342;2023-06-14T09:20:33;6.50;;;4.15;;
21743;SDS011;11034;48.556;9.342;2023-06-14T09:23:02;8.15;;;4.38;;
21743;SDS011;11034;48.556;9.342;2023-06-14T09:25:32;5.55;;;4.22;;
21743;SDS011;11034;48.556;9.342;2023-06-14T09:28:06;10.23;;;3.97;;
21743;SDS011;11034;48.556;9.342;2023-06-14T09:30:36;7.25;;;4.07;;
21743;SDS011;11034;48.556;9.342;2023-06-14T09:33:04;8.18;;;4.07;;
21743;SDS011;11034;48.556;9.342;2023-06-14T09:35:34;7.82;;;4.18;;
21743;SDS011;11034;48.556;9.342;2023-06-14T09:38:03;7.03;;;4.22;;
21743;SDS011;11034;48.556;9.342;2023-06-14T09:40:33;6.68;;;4.20;;
21743;SDS011;11034;48.556;9.342;2023-06-14T09:43:04;7.35;;;3.90;;
21743;SDS011;11034;48.556;9.342;2023-06-14T09:45:35;6.30;;;4.20;;
21743;SDS011;11034;48.556;9.342;2023-06-14T09:48:04;7.55;;;4.22;;
21743;SDS011;11034;48.556;9.342;2023-06-14T09:50:35;6.07;;;3.92;;
21743;SDS011;11034;48.556;9.342;2023-06-14T09:53:05;6.88;;;4.32;;
21743;SDS011;11034;48.556;9.342;2023-06-14T09:55:35;6.07;;;4.10;;
21743;SDS011;11034;48.556;9.342;2023-06-14T09:58:05;7.65;;;4.57;;
21743;SDS011;11034;48.556;9.342;2023-06-14T10:00:35;7.22;;;3.95;;
21743;SDS011;11034;48.556;9.342;2023-06-14T10:03:06;6.80;;;4.47;;
21743;SDS011;11034;48.556;9.342;2023-06-14T10:05:43;7.18;;;3.90;;
21743;SDS011;11034;48.556;9.342;2023-06-14T10:08:13;7.38;;;4.07;;
21743;SDS011;11034;48.556;9.342;2023-06-14T10:10:45;8.02;;;4.32;;
21743;SDS011;11034;48.556;9.342;2023-06-14T10:13:14;5.93;;;4.05;;
21743;SDS011;11034;48.556;9.342;2023-06-14T10:15:44;7.63;;;3.72;;
21743;SDS011;11034;48.556;9.342;2023-06-14T10:18:30;4.85;;;3.90;;
21743;SDS011;11034;48.556;9.342;2023-06-14T10:21:04;7.35;;;4.10;;
21743;SDS011;11034;48.556;9.342;2023-06-14T10:23:43;10.73;;;4.20;;
21743;SDS011;11034;48.556;9.342;2023-06-14T10:26:19;6.13;;;3.60;;
21743;SDS011;11034;48.556;9.342;2023-06-14T10:28:55;7.32;;;4.10;;
21743;SDS011;11034;48.556;9.342;2023-06-14T10:31:39;4.97;;;3.50;;
21743;SDS011;11034;48.556;9.342;2023-06-14T10:34:08;4.85;;;3.88;;
21743;SDS011;11034;48.556;9.342;2023-06-14T10:36:39;6.45;;;3.80;;
21743;SDS011;11034;48.556;9.342;2023-06-14T10:39:11;7.38;;;4.03;;
21743;SDS011;11034;48.556;9.342;2023-06-14T10:41:50;6.68;;;3.33;;
21743;SDS011;11034;48.556;9.342;2023-06-14T10:44:38;6.47;;;3.88;;
21743;SDS011;11034;48.556;9.342;2023-06-14T10:47:07;6.85;;;3.65;;
21743;SDS011;11034;48.556;9.342;2023-06-14T10:49:41;4.82;;;3.40;;
21743;SDS011;11034;48.556;9.342;2023-06-14T10:52:12;7.43;;;3.47;;
21743;SDS011;11034;48.556;9.342;2023-06-14T10:57:32;4.45;;;3.58;;
21743;SDS011;11034;48.556;9.342;2023-06-14T11:00:16;6.03;;;3.63;;
21743;SDS011;11034;48.556;9.342;2023-06-14T11:02:51;4.82;;;3.90;;
21743;SDS011;11034;48.556;9.342;2023-06-14T11:05:41;9.65;;;4.22;;
21743;SDS011;11034;48.556;9.342;2023-06-14T11:11:17;9.32;;;4.47;;
21743;SDS011;11034;48.556;9.342;2023-06-14T11:13:48;4.97;;;4.15;;
21743;SDS011;11034;48.556;9.342;2023-06-14T11:16:21;7.97;;;4.15;;
21743;SDS011;11034;48.556;9.342;2023-06-14T11:18:54;9.50;;;4.30;;
21743;SDS011;11034;48.556;9.342;2023-06-14T11:21:23;5.65;;;3.90;;
21743;SDS011;11034;48.556;9.342;2023-06-14T11:23:58;8.95;;;4.70;;
21743;SDS011;11034;48.556;9.342;2023-06-14T11:26:27;9.10;;;4.15;;
21743;SDS011;11034;48.556;9.342;2023-06-14T11:28:55;9.45;;;4.53;;
21743;SDS011;11034;48.556;9.342;2023-06-14T11:31:25;7.22;;;4.20;;
21743;SDS011;11034;48.556;9.342;2023-06-14T11:33:54;7.88;;;4.35;;
21743;SDS011;11034;48.556;9.342;2023-06-14T11:36:26;5.60;;;4.00;;
21743;SDS011;11034;48.556;9.342;2023-06-14T11:39:00;6.32;;;4.00;;
21743;SDS011;11034;48.556;9.342;2023-06-14T11:41:32;9.38;;;4.10;;
21743;SDS011;11034;48.556;9.342;2023-06-14T11:44:01;6.60;;;3.90;;
21743;SDS011;11034;48.556;9.342;2023-06-14T11:46:30;6.18;;;4.25;;
21743;SDS011;11034;48.556;9.342;2023-06-14T11:48:58;6.93;;;4.03;;
21743;SDS011;11034;48.556;9.342;2023-06-14T11:51:29;5.75;;;4.05;;
21743;SDS011;11034;48.556;9.342;2023-06-14T11:53:57;5.13;;;3.95;;
21743;SDS011;11034;48.556;9.342;2023-06-14T11:56:28;11.20;;;4.57;;
21743;SDS011;11034;48.556;9.342;2023-06-14T11:58:56;5.80;;;4.15;;
21743;SDS011;11034;48.556;9.342;2023-06-14T12:01:24;7.90;;;4.18;;
21743;SDS011;11034;48.556;9.342;2023-06-14T12:03:53;5.55;;;3.83;;
21743;SDS011;11034;48.556;9.342;2023-06-14T12:06:25;9.23;;;4.28;;
21743;SDS011;11034;48.556;9.342;2023-06-14T12:08:55;6.55;;;4.13;;
21743;SDS011;11034;48.556;9.342;2023-06-14T12:11:24;5.28;;;4.05;;
21743;SDS011;11034;48.556;9.342;2023-06-14T12:13:56;6.50;;;4.60;;
21743;SDS011;11034;48.556;9.342;2023-06-14T12:16:29;4.88;;;4.35;;
21743;SDS011;11034;48.556;9.342;2023-06-14T12:19:08;11.15;;;4.47;;
21743;SDS011;11034;48.556;9.342;2023-06-14T12:21:37;6.00;;;4.32;;
21743;SDS011;11034;48.556;9.342;2023-06-14T12:24:07;7.80;;;4.35;;
21743;SDS011;11034;48.556;9.342;2023-06-14T12:26:38;7.95;;;4.20;;
21743;SDS011;11034;48.556;9.342;2023-06-14T12:29:08;5.47;;;4.30;;
21743;SDS011;11034;48.556;9.342;2023-06-14T12:31:39;6.32;;;4.28;;
21743;SDS011;11034;48.556;9.342;2023-06-14T12:34:07;6.40;;;4.55;;
21743;SDS011;11034;48.556;9.342;2023-06-14T12:36:35;6.00;;;4.30;;
21743;SDS011;11034;48.556;9.342;2023-06-14T12:39:08;9.18;;;4.55;;
21743;SDS011;11034;48.556;9.342;2023-06-14T12:41:36;9.25;;;4.13;;
21743;SDS011;11034;48.556;9.342;2023-06-14T12:44:04;5.70;;;4.45;;
21743;SDS011;11034;48.556;9.342;2023-06-14T12:46:34;9.68;;;4.85;;
21743;SDS011;11034;48.556;9.342;2023-06-14T12:49:03;7.45;;;4.32;;
21743;SDS011;11034;48.556;9.342;2023-06-14T12:51:31;4.88;;;4.10;;
21743;SDS011;11034;48.556;9.342;2023-06-14T12:53:59;8.40;;;4.38;;
21743;SDS011;11034;48.556;9.342;2023-06-14T12:56:27;5.82;;;4.35;;
21743;SDS011;11034;48.556;9.342;2023-06-14T12:58:55;5.57;;;3.97;;
21743;SDS011;11034;48.556;9.342;2023-06-14T13:01:24;7.50;;;4.03;;
21743;SDS011;11034;48.556;9.342;2023-06-14T13:03:53;4.65;;;3.85;;
21743;SDS011;11034;48.556;9.342;2023-06-14T13:06:21;7.07;;;4.47;;
21743;SDS011;11034;48.556;9.342;2023-06-14T13:08:50;9.25;;;4.38;;
21743;SDS011;11034;48.556;9.342;2023-06-14T13:11:21;6.00;;;3.90;;
21743;SDS011;11034;48.556;9.342;2023-06-14T13:13:49;5.45;;;4.13;;
21743;SDS011;11034;48.556;9.342;2023-06-14T13:16:17;7.47;;;4.20;;
21743;SDS011;11034;48.556;9.342;2023-06-14T13:18:45;9.50;;;4.57;;
21743;SDS011;11034;48.556;9.342;2023-06-14T13:21:14;9.27;;;4.13;;
21743;SDS011;11034;48.556;9.342;2023-06-14T13:23:42;8.50;;;4.30;;
21743;SDS011;11034;48.556;9.342;2023-06-14T13:26:10;7.90;;;4.10;;
21743;SDS011;11034;48.556;9.342;2023-06-14T13:28:38;7.38;;;3.90;;
21743;SDS011;11034;48.556;9.342;2023-06-14T13:31:06;5.90;;;4.10;;
21743;SDS011;11034;48.556;9.342;2023-06-14T13:33:34;5.95;;;3.80;;
21743;SDS011;11034;48.556;9.342;2023-06-14T13:36:03;5.75;;;4.40;;
21743;SDS011;11034;48.556;9.342;2023-06-14T13:38:33;11.93;;;4.47;;
21743;SDS011;11034;48.556;9.342;2023-06-14T13:41:01;6.60;;;4.10;;
21743;SDS011;11034;48.556;9.342;2023-06-14T13:43:29;8.45;;;4.55;;
21743;SDS011;11034;48.556;9.342;2023-06-14T13:45:57;6.55;;;4.30;;
21743;SDS011;11034;48.556;9.342;2023-06-14T13:48:25;8.18;;;4.28;;
21743;SDS011;11034;48.556;9.342;2023-06-14T13:50:53;5.88;;;4.25;;
21743;SDS011;11034;48.556;9.342;2023-06-14T13:53:21;7.97;;;4.38;;
21743;SDS011;11034;48.556;9.342;2023-06-14T13:55:50;7.43;;;4.32;;
21743;SDS011;11034;48.556;9.342;2023-06-14T13:58:18;9.02;;;4.63;;
21743;SDS011;11034;48.556;9.342;2023-06-14T14:00:46;5.15;;;3.90;;
21743;SDS011;11034;48.556;9.342;2023-06-14T14:03:14;8.57;;;4.20;;
21743;SDS011;11034;48.556;9.342;2023-06-14T14:05:42;6.00;;;3.92;;
21743;SDS011;11034;48.556;9.342;2023-06-14T14:08:11;5.82;;;3.90;;
21743;SDS011;11034;48.556;9.342;2023-06-14T14:10:39;4.88;;;3.83;;
21743;SDS011;11034;48.556;9.342;2023-06-14T14:13:09;8.90;;;4.28;;
21743;SDS011;11034;48.556;9.342;2023-06-14T14:15:37;9.10;;;3.90;;
21743;SDS011;11034;48.556;9.342;2023-06-14T14:18:05;10.57;;;4.30;;
21743;SDS011;11034;48.556;9.342;2023-06-14T14:20:33;8.35;;;4.25;;
21743;SDS011;11034;48.556;9.342;2023-06-14T14:23:02;7.70;;;4.15;;
21743;SDS011;11034;48.556;9.342;2023-06-14T14:25:30;8.48;;;4.38;;
21743;SDS011;11034;48.556;9.342;2023-06-14T14:27:58;4.35;;;3.95;;
21743;SDS011;11034;48.556;9.342;2023-06-14T14:30:27;7.40;;;4.18;;
21743;SDS011;11034;48.556;9.342;2023-06-14T14:32:55;9.43;;;4.20;;
21743;SDS011;11034;48.556;9.342;2023-06-14T14:35:23;6.72;;;4.00;;
21743;SDS011;11034;48.556;9.342;2023-06-14T14:37:56;4.78;;;4.00;;
21743;SDS011;11034;48.556;9.342;2023-06-14T14:40:24;5.70;;;3.80;;
21743;SDS011;11034;48.556;9.342;2023-06-14T14:42:52;5.00;;;4.15;;
21743;SDS011;11034;48.556;9.342;2023-06-14T14:45:20;7.00;;;3.63;;
21743;SDS011;11034;48.556;9.342;2023-06-14T14:47:50;5.07;;;4.05;;
21743;SDS011;11034;48.556;9.342;2023-06-14T14:50:21;9.82;;;4.13;;
21743;SDS011;11034;48.556;9.342;2023-06-14T14:52:49;7.45;;;4.25;;
21743;SDS011;11034;48.556;9.342;2023-06-14T14:55:17;9.05;;;4.40;;
21743;SDS011;11034;48.556;9.342;2023-06-14T14:57:45;5.55;;;4.22;;
21743;SDS011;11034;48.556;9.342;2023-06-14T15:00:14;6.93;;;4.20;;
21743;SDS011;11034;48.556;9.342;2023-06-14T15:02:43;7.05;;;4.30;;
21743;SDS011;11034;48.556;9.342;2023-06-14T15:05:12;4.35;;;3.90;;
21743;SDS011;11034;48.556;9.342;2023-06-14T15:07:40;5.03;;;3.85;;